createdAt,value
2018-12-06T00:01:14.999Z,7.00
2018-12-06T00:04:16.589Z,6.90
2018-12-06T00:07:52.099Z,6.90
2018-12-06T00:10:09.873Z,6.90
2018-12-06T00:13:28.404Z,6.70
2018-12-06T00:19:54.017Z,6.60
2018-12-06T00:22:42.117Z,6.60
2018-12-06T00:25:24.055Z,6.60
2018-12-06T00:28:16.260Z,6.60
2018-12-06T00:30:58.562Z,6.50
2018-12-06T00:33:47.262Z,6.50
2018-12-06T00:36:28.790Z,6.40
2018-12-06T00:39:16.993Z,6.50
2018-12-06T00:41:58.989Z,6.50
2018-12-06T00:44:47.155Z,6.50
2018-12-06T00:47:28.911Z,6.50
2018-12-06T00:50:18.294Z,6.50
2018-12-06T00:52:59.582Z,6.50
2018-12-06T00:55:47.840Z,6.50
2018-12-06T00:58:31.065Z,6.50
2018-12-06T01:04:22.345Z,6.50
2018-12-06T01:07:10.477Z,6.50
2018-12-06T01:09:58.623Z,6.50
2018-12-06T01:12:39.989Z,6.60
2018-12-06T01:15:21.812Z,6.50
2018-12-06T01:18:35.428Z,6.50
2018-12-06T01:21:17.310Z,6.50
2018-12-06T01:24:05.378Z,6.50
2018-12-06T01:26:58.498Z,6.50
2018-12-06T01:29:40.441Z,6.60
2018-12-06T01:32:28.586Z,6.60
2018-12-06T01:35:10.623Z,6.60
2018-12-06T01:38:20.617Z,6.60
2018-12-06T01:41:02.324Z,6.60
2018-12-06T01:43:50.454Z,6.60
2018-12-06T01:46:31.869Z,6.60
2018-12-06T01:49:20.049Z,6.60
2018-12-06T01:52:03.633Z,6.60
2018-12-06T01:54:51.710Z,6.60
2018-12-06T01:57:33.601Z,6.60
2018-12-06T02:00:39.755Z,6.50
2018-12-06T02:03:22.610Z,6.60
2018-12-06T02:06:04.482Z,6.60
2018-12-06T02:08:53.052Z,6.60
2018-12-06T02:11:34.826Z,6.60
2018-12-06T02:14:22.956Z,6.50
2018-12-06T02:17:06.634Z,6.50
2018-12-06T02:20:12.987Z,6.50
2018-12-06T02:26:46.978Z,6.50
2018-12-06T02:29:37.042Z,6.50
2018-12-06T02:32:45.327Z,6.50
2018-12-06T02:35:58.938Z,6.60
2018-12-06T02:38:43.211Z,6.60
2018-12-06T02:41:45.296Z,6.60
2018-12-06T02:44:38.654Z,6.70
2018-12-06T02:47:53.287Z,6.70
2018-12-06T02:50:35.071Z,6.80
2018-12-06T02:53:24.862Z,6.90
2018-12-06T02:59:36.614Z,7.00
2018-12-06T03:02:20.016Z,7.00
2018-12-06T03:05:08.645Z,6.80
2018-12-06T03:07:58.130Z,6.70
2018-12-06T03:10:51.430Z,6.70
2018-12-06T03:13:39.533Z,6.70
2018-12-06T03:16:54.665Z,6.60
2018-12-06T03:19:35.562Z,6.70
2018-12-06T03:22:17.723Z,6.70
2018-12-06T03:25:20.094Z,6.80
2018-12-06T03:28:11.419Z,7.00
2018-12-06T03:30:39.896Z,7.20
2018-12-06T03:33:28.245Z,7.40
2018-12-06T03:40:26.056Z,8.20
2018-12-06T03:43:08.474Z,8.60
2018-12-06T03:45:56.684Z,8.60
2018-12-06T03:48:45.100Z,8.60
2018-12-06T03:51:26.641Z,8.60
2018-12-06T03:54:34.033Z,8.70
2018-12-06T03:57:15.389Z,8.70
2018-12-06T04:04:12.174Z,8.10
2018-12-06T04:13:55.780Z,7.50
2018-12-06T04:16:25.380Z,7.50
2018-12-06T04:18:54.849Z,7.50
2018-12-06T04:26:19.240Z,7.60
2018-12-06T04:36:48.764Z,7.70
2018-12-06T04:43:17.932Z,7.80
2018-12-06T04:49:47.016Z,7.80
2018-12-06T04:56:17.090Z,7.80
2018-12-06T05:02:47.273Z,7.90
2018-12-06T05:09:16.956Z,8.00
2018-12-06T05:15:46.860Z,8.10
2018-12-06T05:22:16.557Z,8.20
2018-12-06T05:28:45.965Z,8.10
2018-12-06T05:32:11.198Z,8.20
2018-12-06T05:39:00.106Z,8.30
2018-12-06T05:52:19.506Z,8.60
2018-12-06T06:02:47.669Z,8.60
2018-12-06T06:05:22.642Z,8.70
2018-12-06T06:08:10.783Z,8.70
2018-12-06T06:11:26.071Z,8.70
2018-12-06T06:14:17.419Z,8.70
2018-12-06T06:17:02.790Z,8.80
2018-12-06T06:23:50.414Z,8.70
2018-12-06T06:26:38.616Z,8.70
2018-12-06T06:29:35.373Z,8.70
2018-12-06T06:32:21.725Z,8.60
2018-12-06T06:35:17.144Z,8.60
2018-12-06T06:38:15.031Z,8.50
2018-12-06T06:40:57.836Z,8.50
2018-12-06T06:46:45.253Z,8.40
2018-12-06T06:49:33.467Z,8.40
2018-12-06T06:52:21.597Z,8.50
2018-12-06T06:54:49.992Z,8.50
2018-12-06T06:57:38.314Z,8.50
2018-12-06T07:00:26.464Z,8.60
2018-12-06T07:03:19.870Z,8.60
2018-12-06T07:06:07.930Z,8.70
2018-12-06T07:08:36.503Z,8.70
2018-12-06T07:11:24.723Z,8.70
2018-12-06T07:14:06.175Z,8.80
2018-12-06T07:16:56.393Z,8.70
2018-12-06T07:19:38.580Z,8.80
2018-12-06T07:22:52.854Z,8.80
2018-12-06T07:25:35.265Z,8.70
2018-12-06T07:28:23.300Z,8.80
2018-12-06T07:31:05.377Z,8.90
2018-12-06T07:33:53.425Z,8.90
2018-12-06T07:36:46.600Z,9.00
2018-12-06T07:40:02.282Z,9.00
2018-12-06T07:42:44.604Z,9.00
2018-12-06T07:45:13.591Z,9.10
2018-12-06T07:48:18.665Z,9.10
2018-12-06T07:51:00.420Z,9.10
2018-12-06T07:53:48.689Z,9.10
2018-12-06T07:56:17.339Z,9.10
2018-12-06T07:59:05.482Z,9.00
2018-12-06T08:02:27.665Z,9.00
2018-12-06T08:05:15.868Z,9.10
2018-12-06T08:07:57.674Z,9.10
2018-12-06T08:10:45.781Z,9.20
2018-12-06T08:13:27.506Z,9.30
2018-12-06T08:16:15.630Z,9.30
2018-12-06T08:18:57.527Z,9.40
2018-12-06T08:21:48.318Z,9.40
2018-12-06T08:24:30.702Z,9.40
2018-12-06T08:27:19.024Z,9.40
2018-12-06T08:33:44.960Z,9.60
2018-12-06T08:36:33.785Z,9.60
2018-12-06T08:39:16.318Z,9.40
2018-12-06T08:41:58.014Z,9.40
2018-12-06T08:45:11.230Z,9.40
2018-12-06T08:47:53.466Z,9.30
2018-12-06T08:50:41.869Z,9.20
2018-12-06T08:53:30.139Z,9.10
2018-12-06T08:55:58.575Z,9.10
2018-12-06T08:58:46.659Z,9.10
2018-12-06T09:01:30.498Z,9.10
2018-12-06T09:04:12.290Z,9.00
2018-12-06T09:07:00.500Z,9.00
2018-12-06T09:10:22.164Z,9.10
2018-12-06T09:13:04.803Z,9.20
2018-12-06T09:15:46.180Z,9.30
2018-12-06T09:18:35.365Z,9.30
2018-12-06T09:24:46.839Z,9.40
2018-12-06T09:27:35.488Z,9.40
2018-12-06T09:30:17.352Z,9.40
2018-12-06T09:33:51.833Z,9.40
2018-12-06T09:36:35.215Z,9.40
2018-12-06T09:42:50.528Z,9.40
2018-12-06T09:45:18.834Z,9.40
2018-12-06T09:55:41.665Z,9.00
2018-12-06T09:58:30.009Z,9.00
2018-12-06T10:01:39.552Z,9.00
2018-12-06T10:04:55.543Z,9.10
2018-12-06T10:07:37.369Z,9.30
2018-12-06T10:10:28.047Z,9.30
2018-12-06T10:12:56.559Z,9.40
2018-12-06T10:15:44.767Z,9.40
2018-12-06T10:21:43.586Z,9.50
2018-12-06T10:24:12.632Z,9.70
2018-12-06T10:26:40.957Z,9.80
2018-12-06T10:29:10.347Z,9.90
2018-12-06T10:31:38.679Z,10.00
2018-12-06T10:34:07.076Z,10.10
2018-12-06T10:36:36.334Z,10.20
2018-12-06T10:39:06.460Z,10.30
2018-12-06T10:41:34.881Z,10.40
2018-12-06T10:44:03.330Z,10.50
2018-12-06T10:46:31.633Z,10.70
2018-12-06T10:48:59.962Z,10.80
2018-12-06T10:51:38.168Z,10.80
2018-12-06T10:54:06.549Z,10.80
2018-12-06T10:56:35.289Z,10.90
2018-12-06T10:59:03.811Z,11.00
2018-12-06T11:01:51.840Z,11.00
2018-12-06T11:04:20.278Z,11.20
2018-12-06T11:06:49.093Z,11.20
2018-12-06T11:09:17.473Z,11.30
2018-12-06T11:11:45.797Z,11.40
2018-12-06T11:14:14.206Z,11.50
2018-12-06T11:16:42.523Z,11.50
2018-12-06T11:19:12.724Z,11.40
2018-12-06T11:21:41.094Z,11.00
2018-12-06T11:24:09.441Z,10.70
2018-12-06T11:26:38.705Z,10.10
2018-12-06T11:29:07.139Z,9.80
2018-12-06T11:31:35.437Z,9.80
2018-12-06T11:34:05.835Z,9.80
2018-12-06T11:36:34.240Z,9.90
2018-12-06T11:39:04.940Z,10.00
2018-12-06T11:41:33.388Z,10.20
2018-12-06T11:44:01.802Z,10.20
2018-12-06T11:46:30.215Z,10.20
2018-12-06T11:48:59.457Z,10.10
2018-12-06T11:51:27.745Z,10.10
2018-12-06T11:53:58.036Z,10.10
2018-12-06T11:56:27.312Z,10.20
2018-12-06T11:58:56.580Z,10.20
2018-12-06T12:01:24.915Z,10.20
2018-12-06T12:03:53.224Z,10.20
2018-12-06T12:06:21.624Z,10.30
2018-12-06T12:08:50.014Z,10.20
2018-12-06T12:11:18.322Z,10.40
2018-12-06T12:13:46.881Z,10.40
2018-12-06T12:16:15.309Z,10.50
2018-12-06T12:18:44.607Z,10.60
2018-12-06T12:21:13.003Z,10.80
2018-12-06T12:23:41.343Z,10.80
2018-12-06T12:26:09.666Z,11.00
2018-12-06T12:28:37.982Z,11.00
2018-12-06T12:31:06.297Z,11.10
2018-12-06T12:33:34.707Z,11.20
2018-12-06T12:36:03.067Z,11.20
2018-12-06T12:38:31.422Z,11.30
2018-12-06T12:41:01.263Z,11.40
2018-12-06T12:43:29.719Z,11.50
2018-12-06T12:45:58.161Z,11.60
2018-12-06T12:48:26.477Z,11.60
2018-12-06T12:50:54.773Z,11.60
2018-12-06T12:53:23.283Z,11.60
2018-12-06T12:55:52.611Z,11.50
2018-12-06T12:58:22.988Z,11.40
2018-12-06T13:00:51.353Z,11.20
2018-12-06T13:03:21.674Z,11.10
2018-12-06T13:05:51.387Z,11.10
2018-12-06T13:08:19.787Z,11.10
2018-12-06T13:10:48.088Z,11.20
2018-12-06T13:13:16.479Z,11.30
2018-12-06T13:15:45.711Z,11.50
2018-12-06T13:21:11.263Z,11.60
2018-12-06T13:23:39.722Z,11.70
2018-12-06T13:26:08.193Z,11.70
2018-12-06T13:28:36.525Z,11.80
2018-12-06T13:31:05.141Z,11.70
2018-12-06T13:33:33.445Z,11.70
2018-12-06T13:36:01.856Z,11.70
2018-12-06T13:38:31.076Z,11.70
2018-12-06T13:40:59.416Z,11.70
2018-12-06T13:43:27.812Z,11.70
2018-12-06T13:45:56.317Z,11.60
2018-12-06T13:48:26.903Z,11.50
2018-12-06T13:50:55.325Z,11.60
2018-12-06T13:53:24.199Z,11.60
2018-12-06T13:55:52.540Z,11.60
2018-12-06T13:58:21.001Z,11.50
2018-12-06T14:00:49.559Z,11.50
2018-12-06T14:03:19.167Z,11.40
2018-12-06T14:05:47.503Z,11.40
2018-12-06T14:08:15.983Z,11.30
2018-12-06T14:10:44.311Z,11.30
2018-12-06T14:13:12.712Z,11.20
2018-12-06T14:15:41.040Z,11.20
2018-12-06T14:18:09.509Z,11.20
2018-12-06T14:20:37.878Z,11.20
2018-12-06T14:23:06.253Z,11.20
2018-12-06T14:25:34.655Z,11.30
2018-12-06T14:28:03.967Z,11.30
2018-12-06T14:30:33.795Z,11.30
2018-12-06T14:33:02.183Z,11.30
2018-12-06T14:35:30.597Z,11.30
2018-12-06T14:37:58.985Z,11.30
2018-12-06T14:40:27.360Z,11.20
2018-12-06T14:42:55.866Z,11.20
2018-12-06T14:45:24.409Z,11.20
2018-12-06T14:47:52.821Z,11.20
2018-12-06T14:50:21.227Z,11.20
2018-12-06T14:52:49.556Z,11.20
2018-12-06T14:55:17.856Z,11.20
2018-12-06T14:57:48.144Z,11.20
2018-12-06T15:00:16.574Z,11.20
2018-12-06T15:02:44.979Z,11.20
2018-12-06T15:05:13.288Z,11.20
2018-12-06T15:07:41.741Z,11.20
2018-12-06T15:10:10.638Z,11.20
2018-12-06T15:12:39.004Z,11.10
2018-12-06T15:15:08.302Z,11.10
2018-12-06T15:17:37.537Z,11.10
2018-12-06T15:20:06.085Z,11.10
2018-12-06T15:22:34.407Z,11.00
2018-12-06T15:25:02.893Z,11.00
2018-12-06T15:27:32.591Z,10.90
2018-12-06T15:30:00.906Z,10.90
2018-12-06T15:32:29.203Z,10.80
2018-12-06T15:34:58.554Z,10.60
2018-12-06T15:37:26.859Z,10.50
2018-12-06T15:39:55.268Z,10.40
2018-12-06T15:42:23.651Z,10.30
2018-12-06T15:44:52.062Z,10.30
2018-12-06T15:47:20.443Z,10.20
2018-12-06T15:49:49.705Z,10.10
2018-12-06T15:52:18.047Z,10.10
2018-12-06T15:54:46.361Z,10.10
2018-12-06T15:57:14.732Z,10.10
2018-12-06T15:59:43.267Z,10.10
2018-12-06T16:02:12.525Z,10.10
2018-12-06T16:04:40.900Z,10.10
2018-12-06T16:07:09.263Z,10.00
2018-12-06T16:09:38.565Z,10.00
2018-12-06T16:12:06.951Z,10.00
2018-12-06T16:14:35.335Z,10.00
2018-12-06T16:17:04.171Z,9.90
2018-12-06T16:19:32.530Z,9.90
2018-12-06T16:22:00.854Z,9.80
2018-12-06T16:24:29.170Z,9.80
2018-12-06T16:26:58.422Z,9.90
2018-12-06T16:32:23.047Z,9.80
2018-12-06T16:34:51.388Z,9.80
2018-12-06T16:37:19.821Z,9.70
2018-12-06T16:39:48.154Z,9.70
2018-12-06T16:42:17.273Z,9.70
2018-12-06T16:44:45.704Z,9.70
2018-12-06T16:47:15.172Z,9.70
2018-12-06T16:49:43.501Z,9.80
2018-12-06T16:52:12.125Z,9.80
2018-12-06T16:54:40.551Z,9.70
2018-12-06T16:57:09.220Z,9.70
2018-12-06T16:59:37.549Z,9.70
2018-12-06T17:02:05.955Z,9.80
2018-12-06T17:04:34.666Z,9.70
2018-12-06T17:07:03.074Z,9.80
2018-12-06T17:09:31.965Z,9.80
2018-12-06T17:12:00.595Z,9.80
2018-12-06T17:14:28.967Z,9.80
2018-12-06T17:16:57.406Z,9.70
2018-12-06T17:19:25.732Z,9.80
2018-12-06T17:21:54.608Z,9.70
2018-12-06T17:24:22.918Z,9.70
2018-12-06T17:26:51.228Z,9.70
2018-12-06T17:29:19.522Z,9.70
2018-12-06T17:31:47.955Z,9.70
2018-12-06T17:34:16.483Z,9.80
2018-12-06T17:36:45.100Z,9.80
2018-12-06T17:39:13.443Z,9.70
2018-12-06T17:41:41.830Z,9.70
2018-12-06T17:44:10.136Z,9.70
2018-12-06T17:46:38.708Z,9.70
2018-12-06T17:49:07.130Z,9.70
2018-12-06T17:51:35.762Z,9.70
2018-12-06T17:54:04.435Z,9.70
2018-12-06T17:56:33.101Z,9.80
2018-12-06T17:59:01.680Z,9.80
2018-12-06T18:01:29.990Z,10.00
2018-12-06T18:03:58.330Z,10.00
2018-12-06T18:06:26.808Z,10.00
2018-12-06T18:08:56.127Z,10.00
2018-12-06T18:11:24.485Z,10.00
2018-12-06T18:13:52.825Z,10.00
2018-12-06T18:16:23.094Z,10.00
2018-12-06T18:18:51.598Z,10.00
2018-12-06T18:21:22.974Z,10.00
2018-12-06T18:23:51.308Z,9.90
2018-12-06T18:26:20.392Z,9.80
2018-12-06T18:28:50.437Z,9.70
2018-12-06T18:31:18.846Z,9.70
2018-12-06T18:33:47.226Z,9.70
2018-12-06T18:36:15.614Z,9.60
2018-12-06T18:38:43.917Z,9.50
2018-12-06T18:41:12.278Z,9.50
2018-12-06T18:43:40.628Z,9.50
2018-12-06T18:46:09.652Z,9.50
2018-12-06T18:48:38.180Z,9.50
2018-12-06T18:51:06.725Z,9.50
2018-12-06T18:53:35.310Z,9.50
2018-12-06T18:56:03.727Z,9.50
2018-12-06T18:58:34.453Z,9.50
2018-12-06T19:01:04.531Z,9.50
2018-12-06T19:03:33.284Z,9.50
2018-12-06T19:06:02.798Z,9.50
2018-12-06T19:08:31.507Z,9.50
2018-12-06T19:11:00.833Z,9.50
2018-12-06T19:13:30.399Z,9.60
2018-12-06T19:15:59.672Z,9.50
2018-12-06T19:18:29.241Z,9.50
2018-12-06T19:20:57.680Z,9.50
2018-12-06T19:23:26.040Z,9.40
2018-12-06T19:25:54.422Z,9.50
2018-12-06T19:28:26.465Z,9.50
2018-12-06T19:30:54.839Z,9.50
2018-12-06T19:33:24.249Z,9.50
2018-12-06T19:35:53.777Z,9.60
2018-12-06T19:38:22.225Z,9.60
2018-12-06T19:40:52.918Z,9.60
2018-12-06T19:46:19.208Z,9.50
2018-12-06T19:48:47.925Z,9.50
2018-12-06T19:51:16.683Z,9.50
2018-12-06T19:53:45.105Z,9.50
2018-12-06T19:56:13.787Z,9.50
2018-12-06T19:58:42.125Z,9.50
2018-12-06T20:01:10.748Z,9.50
2018-12-06T20:03:39.348Z,9.50
2018-12-06T20:06:07.967Z,9.60
2018-12-06T20:08:36.377Z,9.60
2018-12-06T20:11:04.995Z,9.60
2018-12-06T20:13:33.649Z,9.50
2018-12-06T20:16:02.061Z,9.60
2018-12-06T20:18:30.766Z,9.50
2018-12-06T20:20:59.406Z,9.60
2018-12-06T20:23:27.811Z,9.60
2018-12-06T20:25:56.149Z,9.70
2018-12-06T20:28:26.567Z,9.70
2018-12-06T20:30:55.626Z,9.60
2018-12-06T20:33:24.384Z,9.40
2018-12-06T20:35:52.718Z,9.40
2018-12-06T20:38:21.140Z,9.30
2018-12-06T20:40:49.565Z,9.10
2018-12-06T20:43:17.887Z,9.00
2018-12-06T20:45:46.171Z,8.90
2018-12-06T20:48:14.539Z,8.90
2018-12-06T20:50:49.217Z,8.80
2018-12-06T20:53:13.596Z,8.80
2018-12-06T20:55:42.198Z,8.70
2018-12-06T20:58:14.862Z,8.60
2018-12-06T21:00:40.984Z,8.60
2018-12-06T21:03:09.285Z,8.60
2018-12-06T21:05:38.520Z,8.60
2018-12-06T21:08:07.732Z,8.40
2018-12-06T21:10:36.166Z,8.40
2018-12-06T21:13:04.995Z,8.40
2018-12-06T21:15:33.470Z,8.40
2018-12-06T21:18:01.779Z,8.40
2018-12-06T21:20:31.082Z,8.40
2018-12-06T21:22:59.456Z,8.40
2018-12-06T21:25:27.769Z,8.40
2018-12-06T21:27:56.088Z,8.40
2018-12-06T21:30:24.468Z,8.40
2018-12-06T21:32:52.854Z,8.40
2018-12-06T21:35:21.157Z,8.40
2018-12-06T21:37:49.488Z,8.40
2018-12-06T21:40:17.854Z,8.50
2018-12-06T21:42:46.164Z,8.50
2018-12-06T21:45:14.653Z,8.60
2018-12-06T21:47:42.975Z,8.70
2018-12-06T21:50:11.339Z,8.60
2018-12-06T21:52:40.616Z,8.70
2018-12-06T21:55:09.007Z,8.70
2018-12-06T21:57:37.351Z,8.80
2018-12-06T22:00:06.088Z,8.90
2018-12-06T22:02:35.441Z,8.90
2018-12-06T22:05:04.183Z,9.00
2018-12-06T22:07:33.461Z,9.10
2018-12-06T22:10:01.930Z,9.10
2018-12-06T22:12:30.292Z,9.20
2018-12-06T22:14:58.620Z,9.20
2018-12-06T22:17:27.908Z,9.30
2018-12-06T22:19:56.326Z,9.30
2018-12-06T22:22:24.616Z,9.40
2018-12-06T22:24:52.939Z,9.50
2018-12-06T22:27:21.331Z,9.60
2018-12-06T22:32:47.286Z,9.80
2018-12-06T22:35:15.710Z,9.70
2018-12-06T22:37:44.085Z,9.80
2018-12-06T22:40:12.405Z,9.80
2018-12-06T22:42:40.881Z,9.90
2018-12-06T22:45:18.857Z,9.90
2018-12-06T22:47:47.921Z,9.90
2018-12-06T22:50:16.282Z,9.90
2018-12-06T22:52:44.592Z,9.90
2018-12-06T22:55:13.030Z,9.90
2018-12-06T22:57:41.368Z,10.00
2018-12-06T23:00:10.850Z,10.00
2018-12-06T23:02:39.198Z,10.00
2018-12-06T23:05:07.627Z,10.20
2018-12-06T23:07:36.011Z,10.30
2018-12-06T23:10:05.518Z,10.40
2018-12-06T23:12:36.571Z,10.40
2018-12-06T23:17:06.008Z,10.40
2018-12-06T23:19:34.449Z,10.30
2018-12-06T23:22:02.853Z,10.30
2018-12-06T23:24:31.296Z,10.30
2018-12-06T23:26:59.652Z,10.30
2018-12-06T23:29:28.042Z,10.20
2018-12-06T23:31:56.387Z,10.20
2018-12-06T23:34:24.681Z,10.20
2018-12-06T23:36:53.108Z,10.20
2018-12-06T23:39:21.474Z,10.20
2018-12-06T23:41:50.584Z,10.20
2018-12-06T23:44:18.980Z,10.20
2018-12-06T23:46:47.271Z,10.10
2018-12-06T23:49:15.637Z,10.10
2018-12-06T23:51:44.017Z,10.20
2018-12-06T23:54:13.038Z,10.20
2018-12-06T23:56:41.429Z,10.20
2018-12-06T23:59:09.783Z,10.20
